createdAt,value
2022-10-06T00:00:45.908Z,13.23
2022-10-06T00:03:32.819Z,14.55
2022-10-06T00:06:04.233Z,12.27
2022-10-06T00:08:33.765Z,14.85
2022-10-06T00:11:00.562Z,13.90
2022-10-06T00:13:28.479Z,23.23
2022-10-06T00:15:56.505Z,14.50
2022-10-06T00:18:23.605Z,18.98
2022-10-06T00:20:58.314Z,22.37
2022-10-06T00:23:26.715Z,14.32
2022-10-06T00:25:53.553Z,14.33
2022-10-06T00:28:21.153Z,14.20
2022-10-06T00:30:48.532Z,13.60
2022-10-06T00:33:17.767Z,21.93
2022-10-06T00:35:47.110Z,14.20
2022-10-06T00:38:16.418Z,11.83
2022-10-06T00:40:49.254Z,16.90
2022-10-06T00:43:41.044Z,19.27
2022-10-06T00:46:20.182Z,15.43
2022-10-06T00:48:51.417Z,16.90
2022-10-06T00:51:20.575Z,15.27
2022-10-06T00:53:47.784Z,14.02
2022-10-06T00:56:15.105Z,19.20
2022-10-06T00:58:41.944Z,12.70
2022-10-06T01:01:11.453Z,13.00
2022-10-06T01:03:53.356Z,16.38
2022-10-06T01:06:20.253Z,13.07
2022-10-06T01:08:47.832Z,21.63
2022-10-06T01:11:14.715Z,17.63
2022-10-06T01:13:45.280Z,17.10
2022-10-06T01:16:20.928Z,16.65
2022-10-06T01:18:48.603Z,13.73
2022-10-06T01:21:20.412Z,15.20
2022-10-06T01:23:47.445Z,14.47
2022-10-06T01:26:16.858Z,12.50
2022-10-06T01:28:45.426Z,12.70
2022-10-06T01:31:12.987Z,13.93
2022-10-06T01:33:42.307Z,15.13
2022-10-06T01:36:09.348Z,17.85
2022-10-06T01:38:36.674Z,21.07
2022-10-06T01:41:04.544Z,13.77
2022-10-06T01:43:31.593Z,16.70
2022-10-06T01:45:59.212Z,15.80
2022-10-06T01:48:27.144Z,18.97
2022-10-06T01:50:56.529Z,16.50
2022-10-06T01:53:23.509Z,17.73
2022-10-06T01:55:50.298Z,15.03
2022-10-06T01:58:21.506Z,14.10
2022-10-06T02:00:48.619Z,17.53
2022-10-06T02:03:15.426Z,16.10
2022-10-06T02:05:42.650Z,20.00
2022-10-06T02:08:11.233Z,17.10
2022-10-06T02:10:38.215Z,14.03
2022-10-06T02:13:09.552Z,15.73
2022-10-06T02:15:36.402Z,17.23
2022-10-06T02:18:03.492Z,17.80
2022-10-06T02:20:30.564Z,15.50
2022-10-06T02:22:57.468Z,24.03
2022-10-06T02:25:24.996Z,20.20
2022-10-06T02:27:54.690Z,15.23
2022-10-06T02:30:21.723Z,13.83
2022-10-06T02:32:48.835Z,15.87
2022-10-06T02:35:15.930Z,17.77
2022-10-06T02:37:43.876Z,20.07
2022-10-06T02:40:16.332Z,17.67
2022-10-06T02:42:45.671Z,15.03
2022-10-06T02:45:16.029Z,16.30
2022-10-06T02:47:42.860Z,20.17
2022-10-06T02:50:10.958Z,17.33
2022-10-06T02:52:41.087Z,15.17
2022-10-06T02:55:09.139Z,16.10
2022-10-06T02:57:37.075Z,16.20
2022-10-06T03:00:07.420Z,19.87
2022-10-06T03:02:35.118Z,15.30
2022-10-06T03:05:02.566Z,22.70
2022-10-06T03:07:29.624Z,13.63
2022-10-06T03:09:57.531Z,18.13
2022-10-06T03:12:25.556Z,15.43
2022-10-06T03:14:52.598Z,15.93
2022-10-06T03:17:19.992Z,14.10
2022-10-06T03:19:51.946Z,17.17
2022-10-06T03:22:19.210Z,22.13
2022-10-06T03:24:51.236Z,17.13
2022-10-06T03:27:18.256Z,17.40
2022-10-06T03:29:46.022Z,17.90
2022-10-06T03:32:13.873Z,14.47
2022-10-06T03:34:42.806Z,14.47
2022-10-06T03:37:13.013Z,19.33
2022-10-06T03:39:40.144Z,15.67
2022-10-06T03:42:07.221Z,18.53
2022-10-06T03:44:35.096Z,15.73
2022-10-06T03:47:02.733Z,14.20
2022-10-06T03:49:30.853Z,16.30
2022-10-06T03:51:57.738Z,20.50
2022-10-06T03:54:28.392Z,21.23
2022-10-06T03:56:56.364Z,16.37
2022-10-06T03:59:24.257Z,17.30
2022-10-06T04:01:53.056Z,17.63
2022-10-06T04:04:25.519Z,12.80
2022-10-06T04:06:58.087Z,18.13
2022-10-06T04:09:24.950Z,17.53
2022-10-06T04:11:52.525Z,14.80
2022-10-06T04:14:20.344Z,15.80
2022-10-06T04:16:49.265Z,15.60
2022-10-06T04:19:22.051Z,16.37
2022-10-06T04:21:51.947Z,15.03
2022-10-06T04:24:22.228Z,15.10
2022-10-06T04:26:50.096Z,14.77
2022-10-06T04:29:18.808Z,15.43
2022-10-06T04:31:50.599Z,14.57
2022-10-06T04:34:24.426Z,15.63
2022-10-06T04:36:52.117Z,16.17
2022-10-06T04:39:19.305Z,15.90
2022-10-06T04:41:47.539Z,19.73
2022-10-06T04:44:22.089Z,15.10
2022-10-06T04:46:49.597Z,18.23
2022-10-06T04:49:20.290Z,14.38
2022-10-06T04:51:49.776Z,13.45
2022-10-06T04:54:18.735Z,12.33
2022-10-06T04:56:46.592Z,17.57
2022-10-06T04:59:15.296Z,14.13
2022-10-06T05:01:44.080Z,11.37
2022-10-06T05:04:13.179Z,14.53
2022-10-06T05:06:41.905Z,12.30
2022-10-06T05:09:12.052Z,14.07
2022-10-06T05:11:43.323Z,16.48
2022-10-06T05:14:13.212Z,13.20
2022-10-06T05:16:44.191Z,11.63
2022-10-06T05:19:12.476Z,14.50
2022-10-06T05:21:40.824Z,11.20
2022-10-06T05:24:10.280Z,20.77
2022-10-06T05:26:38.333Z,16.85
2022-10-06T05:29:08.951Z,15.83
2022-10-06T05:31:39.052Z,11.07
2022-10-06T05:34:07.240Z,12.70
2022-10-06T05:36:35.432Z,14.67
2022-10-06T05:39:03.923Z,12.50
2022-10-06T05:41:42.869Z,13.27
2022-10-06T05:44:11.131Z,11.97
2022-10-06T05:46:39.946Z,20.37
2022-10-06T05:49:10.446Z,10.82
2022-10-06T05:51:40.860Z,20.33
2022-10-06T05:54:14.294Z,12.93
2022-10-06T05:56:42.397Z,11.65
2022-10-06T05:59:09.286Z,14.07
2022-10-06T06:01:42.416Z,12.45
2022-10-06T06:04:20.376Z,9.45
2022-10-06T06:06:51.659Z,13.05
2022-10-06T06:09:22.092Z,9.50
2022-10-06T06:11:54.742Z,11.02
2022-10-06T06:14:44.911Z,10.48
2022-10-06T06:17:16.709Z,13.38
2022-10-06T06:19:43.663Z,12.82
2022-10-06T06:22:10.853Z,11.02
2022-10-06T06:24:40.644Z,9.60
2022-10-06T06:27:09.904Z,8.75
2022-10-06T06:29:36.718Z,6.22
2022-10-06T06:32:04.184Z,9.75
2022-10-06T06:34:31.109Z,9.27
2022-10-06T06:37:02.344Z,9.20
2022-10-06T06:39:34.645Z,10.77
2022-10-06T06:42:02.403Z,10.20
2022-10-06T06:44:48.997Z,6.43
2022-10-06T06:47:30.746Z,10.38
2022-10-06T06:50:00.268Z,7.82
2022-10-06T06:52:29.294Z,7.82
2022-10-06T06:54:57.143Z,7.57
2022-10-06T06:57:24.481Z,7.53
2022-10-06T06:59:53.064Z,9.13
2022-10-06T07:02:20.374Z,9.32
2022-10-06T07:04:48.740Z,6.85
2022-10-06T07:07:20.893Z,8.25
2022-10-06T07:09:47.801Z,15.82
2022-10-06T07:12:16.580Z,8.50
2022-10-06T07:15:10.083Z,11.13
2022-10-06T07:18:02.120Z,7.93
2022-10-06T07:20:48.728Z,10.57
2022-10-06T07:23:37.433Z,7.15
2022-10-06T07:26:07.633Z,10.25
2022-10-06T07:28:34.756Z,13.05
2022-10-06T07:31:01.850Z,5.43
2022-10-06T07:33:32.761Z,12.07
2022-10-06T07:36:02.904Z,6.05
2022-10-06T07:38:31.281Z,9.27
2022-10-06T07:43:48.603Z,8.95
2022-10-06T07:46:19.398Z,9.48
2022-10-06T07:49:18.925Z,9.32
2022-10-06T07:51:47.524Z,7.00
2022-10-06T07:54:14.443Z,10.18
2022-10-06T07:56:57.035Z,12.05
2022-10-06T07:59:23.809Z,6.70
2022-10-06T08:01:52.568Z,11.30
2022-10-06T08:04:19.603Z,4.65
2022-10-06T08:06:47.655Z,10.13
2022-10-06T08:09:14.428Z,9.32
2022-10-06T08:11:41.577Z,9.07
2022-10-06T08:14:09.308Z,9.23
2022-10-06T08:16:36.224Z,7.05
2022-10-06T08:19:03.271Z,6.63
2022-10-06T08:21:34.315Z,8.07
2022-10-06T08:24:02.043Z,6.70
2022-10-06T08:26:30.990Z,5.95
2022-10-06T08:29:00.399Z,7.85
2022-10-06T08:31:27.315Z,8.20
2022-10-06T08:33:56.714Z,12.05
2022-10-06T08:36:30.877Z,10.20
2022-10-06T08:38:59.110Z,9.75
2022-10-06T08:41:34.944Z,8.23
2022-10-06T08:44:18.476Z,8.85
2022-10-06T08:46:50.488Z,5.05
2022-10-06T08:49:23.241Z,4.72
2022-10-06T08:52:14.302Z,10.43
2022-10-06T08:54:51.879Z,5.13
2022-10-06T08:57:50.022Z,8.77
2022-10-06T09:00:21.190Z,10.35
2022-10-06T09:02:50.596Z,4.93
2022-10-06T09:05:26.595Z,8.15
2022-10-06T09:08:12.478Z,2.92
2022-10-06T09:10:58.071Z,7.35
2022-10-06T09:13:30.549Z,4.63
2022-10-06T09:16:05.066Z,5.35
2022-10-06T09:18:56.461Z,7.28
2022-10-06T09:21:35.378Z,4.68
2022-10-06T09:24:10.526Z,5.00
2022-10-06T09:26:43.321Z,8.45
2022-10-06T09:29:10.645Z,6.38
2022-10-06T09:31:51.053Z,7.07
2022-10-06T09:34:25.338Z,4.07
2022-10-06T09:37:22.628Z,1.90
2022-10-06T09:39:51.252Z,5.68
2022-10-06T09:42:26.144Z,3.25
2022-10-06T09:45:03.966Z,6.38
2022-10-06T09:47:36.831Z,4.75
2022-10-06T09:50:21.555Z,3.72
2022-10-06T09:52:57.501Z,7.20
2022-10-06T09:55:29.349Z,5.57
2022-10-06T09:57:58.042Z,10.40
2022-10-06T10:00:36.595Z,6.90
2022-10-06T10:03:09.163Z,6.93
2022-10-06T10:05:46.547Z,10.38
2022-10-06T10:08:13.519Z,4.78
2022-10-06T10:10:41.285Z,4.97
2022-10-06T10:13:24.106Z,8.27
2022-10-06T10:16:00.555Z,3.38
2022-10-06T10:18:31.086Z,6.13
2022-10-06T10:21:00.820Z,6.47
2022-10-06T10:23:33.390Z,5.15
2022-10-06T10:26:20.603Z,7.30
2022-10-06T10:29:11.397Z,8.02
2022-10-06T10:31:50.621Z,5.85
2022-10-06T10:34:26.522Z,5.75
2022-10-06T10:36:59.695Z,2.70
2022-10-06T10:39:33.531Z,6.35
2022-10-06T10:42:06.676Z,3.65
2022-10-06T10:44:37.726Z,3.60
2022-10-06T10:47:29.960Z,8.18
2022-10-06T10:50:22.679Z,6.00
2022-10-06T10:52:51.550Z,5.30
2022-10-06T10:55:41.600Z,5.65
2022-10-06T10:58:19.114Z,4.20
2022-10-06T11:00:51.526Z,5.28
2022-10-06T11:03:18.667Z,6.47
2022-10-06T11:05:48.022Z,6.93
2022-10-06T11:08:26.063Z,7.07
2022-10-06T11:11:00.506Z,2.30
2022-10-06T11:13:27.331Z,6.55
2022-10-06T11:16:12.229Z,6.07
2022-10-06T11:18:45.201Z,5.13
2022-10-06T11:21:23.993Z,6.82
2022-10-06T11:24:15.647Z,4.75
2022-10-06T11:27:01.491Z,4.55
2022-10-06T11:29:38.807Z,2.70
2022-10-06T11:32:27.476Z,7.05
2022-10-06T11:34:54.750Z,4.55
2022-10-06T11:37:40.390Z,8.05
2022-10-06T11:40:22.273Z,3.13
2022-10-06T11:43:06.056Z,4.25
2022-10-06T11:45:40.770Z,6.53
2022-10-06T11:48:07.815Z,9.20
2022-10-06T11:50:41.860Z,5.38
2022-10-06T11:53:37.348Z,4.43
2022-10-06T11:56:16.446Z,4.70
2022-10-06T11:58:52.502Z,5.63
2022-10-06T12:01:45.378Z,7.38
2022-10-06T12:04:16.358Z,8.77
2022-10-06T12:06:48.253Z,6.05
2022-10-06T12:09:38.277Z,5.80
2022-10-06T12:12:18.840Z,5.10
2022-10-06T12:17:56.822Z,2.03
2022-10-06T12:20:58.030Z,3.60
2022-10-06T12:23:39.970Z,9.10
2022-10-06T12:26:49.364Z,8.55
2022-10-06T12:29:21.822Z,7.20
2022-10-06T12:32:22.177Z,12.45
2022-10-06T12:35:03.301Z,3.50
2022-10-06T12:37:54.232Z,5.68
2022-10-06T12:40:46.957Z,5.20
2022-10-06T12:43:22.633Z,6.03
2022-10-06T12:45:55.620Z,7.07
2022-10-06T12:48:33.932Z,4.95
2022-10-06T12:51:12.555Z,8.05
2022-10-06T12:53:55.971Z,6.30
2022-10-06T12:56:31.640Z,8.30
2022-10-06T12:58:58.935Z,7.68
2022-10-06T13:01:27.970Z,8.70
2022-10-06T13:03:55.404Z,8.25
2022-10-06T13:06:25.109Z,13.40
2022-10-06T13:09:13.760Z,9.05
2022-10-06T13:11:41.061Z,13.40
2022-10-06T13:14:13.896Z,9.40
2022-10-06T13:16:44.907Z,5.53
2022-10-06T13:19:18.674Z,7.30
2022-10-06T13:21:46.739Z,6.38
2022-10-06T13:24:19.294Z,5.68
2022-10-06T13:26:47.020Z,4.55
2022-10-06T13:29:22.576Z,9.68
2022-10-06T13:31:53.190Z,3.50
2022-10-06T13:34:27.697Z,10.38
2022-10-06T13:36:55.443Z,9.63
2022-10-06T13:39:24.457Z,10.18
2022-10-06T13:42:10.587Z,9.02
2022-10-06T13:44:42.222Z,7.07
2022-10-06T13:47:18.224Z,9.52
2022-10-06T13:49:53.428Z,9.60
2022-10-06T13:52:26.083Z,10.95
2022-10-06T13:54:56.879Z,9.65
2022-10-06T13:57:44.424Z,12.02
2022-10-06T14:00:14.568Z,8.35
2022-10-06T14:02:44.922Z,6.97
2022-10-06T14:05:23.956Z,9.63
2022-10-06T14:07:51.649Z,14.20
2022-10-06T14:10:23.175Z,15.45
2022-10-06T14:12:50.089Z,13.13
2022-10-06T14:15:20.133Z,13.00
2022-10-06T14:17:53.502Z,11.07
2022-10-06T14:20:42.684Z,11.02
2022-10-06T14:23:42.306Z,10.80
2022-10-06T14:26:12.017Z,5.82
2022-10-06T14:28:47.530Z,9.90
2022-10-06T14:31:15.081Z,10.95
2022-10-06T14:33:42.743Z,10.95
2022-10-06T14:36:37.278Z,11.68
2022-10-06T14:39:06.065Z,8.27
2022-10-06T14:41:33.162Z,4.00
2022-10-06T14:44:09.650Z,7.40
2022-10-06T14:46:37.987Z,10.55
2022-10-06T14:49:10.478Z,10.98
2022-10-06T14:51:39.207Z,17.42
2022-10-06T14:54:07.878Z,6.65
2022-10-06T14:56:37.708Z,11.73
2022-10-06T14:59:06.894Z,4.40
2022-10-06T15:01:35.828Z,4.97
2022-10-06T15:04:07.915Z,7.78
2022-10-06T15:06:53.449Z,5.85
2022-10-06T15:09:20.283Z,9.48
2022-10-06T15:11:47.341Z,6.18
2022-10-06T15:14:14.311Z,6.65
2022-10-06T15:16:42.461Z,12.07
2022-10-06T15:19:11.573Z,7.50
2022-10-06T15:21:40.168Z,14.55
2022-10-06T15:24:09.863Z,10.65
2022-10-06T15:26:55.536Z,15.13
2022-10-06T15:29:22.391Z,9.60
2022-10-06T15:31:52.635Z,13.55
2022-10-06T15:34:23.486Z,11.15
2022-10-06T15:36:52.415Z,13.50
2022-10-06T15:39:25.120Z,12.98
2022-10-06T15:41:52.704Z,9.65
2022-10-06T15:44:20.559Z,11.27
2022-10-06T15:46:55.501Z,10.38
2022-10-06T15:49:24.615Z,11.15
2022-10-06T15:51:56.868Z,7.13
2022-10-06T15:54:30.167Z,10.93
2022-10-06T15:56:59.495Z,9.20
2022-10-06T15:59:29.031Z,5.03
2022-10-06T16:02:17.433Z,7.45
2022-10-06T16:04:57.235Z,11.80
2022-10-06T16:07:24.152Z,11.63
2022-10-06T16:09:52.061Z,11.02
2022-10-06T16:12:21.791Z,11.55
2022-10-06T16:14:49.221Z,10.65
2022-10-06T16:17:16.678Z,11.85
2022-10-06T16:19:43.956Z,9.82
2022-10-06T16:22:15.033Z,10.85
2022-10-06T16:24:42.422Z,9.95
2022-10-06T16:27:14.353Z,6.38
2022-10-06T16:29:41.231Z,8.63
2022-10-06T16:32:08.267Z,10.85
2022-10-06T16:34:35.117Z,7.50
2022-10-06T16:37:04.690Z,11.55
2022-10-06T16:39:31.506Z,14.45
2022-10-06T16:41:58.324Z,9.43
2022-10-06T16:44:25.389Z,13.00
2022-10-06T16:46:52.271Z,11.65
2022-10-06T16:49:19.780Z,14.05
2022-10-06T16:51:46.833Z,10.03
2022-10-06T16:54:15.104Z,12.07
2022-10-06T16:56:45.168Z,9.40
2022-10-06T16:59:17.865Z,9.37
2022-10-06T17:01:46.478Z,10.87
2022-10-06T17:04:23.440Z,11.05
2022-10-06T17:06:55.827Z,12.45
2022-10-06T17:09:25.357Z,13.90
2022-10-06T17:11:58.331Z,13.10
2022-10-06T17:14:26.871Z,12.50
2022-10-06T17:16:56.165Z,15.03
2022-10-06T17:19:28.563Z,9.50
2022-10-06T17:21:59.064Z,13.43
2022-10-06T17:24:28.436Z,14.03
2022-10-06T17:26:56.879Z,7.40
2022-10-06T17:29:25.904Z,10.60
2022-10-06T17:31:56.250Z,14.23
2022-10-06T17:34:26.491Z,9.20
2022-10-06T17:36:55.093Z,6.43
2022-10-06T17:39:24.475Z,12.80
2022-10-06T17:41:53.474Z,8.77
2022-10-06T17:44:23.487Z,7.00
2022-10-06T17:46:56.418Z,11.87
2022-10-06T17:49:24.469Z,15.00
2022-10-06T17:51:53.541Z,6.13
2022-10-06T17:54:23.472Z,12.93
2022-10-06T17:56:53.144Z,13.90
2022-10-06T17:59:25.823Z,13.17
2022-10-06T18:01:56.624Z,9.53
2022-10-06T18:04:24.380Z,11.17
2022-10-06T18:06:53.875Z,12.93
2022-10-06T18:09:21.229Z,16.20
2022-10-06T18:11:54.447Z,11.73
2022-10-06T18:14:27.713Z,10.80
2022-10-06T18:16:58.302Z,11.07
2022-10-06T18:19:30.119Z,11.77
2022-10-06T18:22:03.606Z,13.43
2022-10-06T18:24:31.420Z,20.93
2022-10-06T18:27:00.584Z,22.17
2022-10-06T18:29:33.194Z,9.63
2022-10-06T18:33:33.314Z,12.00
2022-10-06T18:37:35.163Z,17.63
2022-10-06T18:40:05.917Z,20.20
2022-10-06T18:42:33.049Z,14.40
2022-10-06T18:45:18.627Z,11.50
2022-10-06T18:48:04.192Z,12.20
2022-10-06T18:50:32.378Z,11.23
2022-10-06T18:52:59.272Z,10.47
2022-10-06T18:55:27.813Z,11.47
2022-10-06T18:57:54.801Z,8.60
2022-10-06T19:00:21.964Z,7.00
2022-10-06T19:02:51.769Z,10.57
2022-10-06T19:05:19.150Z,12.87
2022-10-06T19:07:46.340Z,11.57
2022-10-06T19:10:14.020Z,15.23
2022-10-06T19:12:40.879Z,9.83
2022-10-06T19:15:09.906Z,11.00
2022-10-06T19:17:40.735Z,10.43
2022-10-06T19:20:10.998Z,21.70
2022-10-06T19:22:38.502Z,21.30
2022-10-06T19:25:05.500Z,13.63
2022-10-06T19:27:33.736Z,12.13
2022-10-06T19:30:00.691Z,15.67
2022-10-06T19:32:32.066Z,18.43
2022-10-06T19:34:59.737Z,9.37
2022-10-06T19:37:29.686Z,10.37
2022-10-06T19:39:56.675Z,10.83
2022-10-06T19:42:42.336Z,11.13
2022-10-06T19:45:12.063Z,9.27
2022-10-06T19:47:40.051Z,8.40
2022-10-06T19:50:12.127Z,8.73
2022-10-06T19:52:41.773Z,8.40
2022-10-06T19:55:08.656Z,14.57
2022-10-06T19:57:35.828Z,12.70
2022-10-06T20:00:04.850Z,8.47
2022-10-06T20:02:42.516Z,11.33
2022-10-06T20:05:15.993Z,10.83
2022-10-06T20:07:45.380Z,10.47
2022-10-06T20:10:13.493Z,18.53
2022-10-06T20:12:43.929Z,16.40
2022-10-06T20:15:12.792Z,16.40
2022-10-06T20:17:42.384Z,18.43
2022-10-06T20:20:10.033Z,15.50
2022-10-06T20:22:36.787Z,18.20
2022-10-06T20:25:07.003Z,20.40
2022-10-06T20:27:33.965Z,24.50
2022-10-06T20:30:00.717Z,27.53
2022-10-06T20:32:27.797Z,23.53
2022-10-06T20:34:54.568Z,22.93
2022-10-06T20:37:21.306Z,19.03
2022-10-06T20:40:06.630Z,27.50
2022-10-06T20:42:33.683Z,25.57
2022-10-06T20:45:00.756Z,28.87
2022-10-06T20:47:27.849Z,18.07
2022-10-06T20:49:55.406Z,22.00
2022-10-06T20:52:24.006Z,31.50
2022-10-06T20:54:51.179Z,24.30
2022-10-06T20:57:18.362Z,22.80
2022-10-06T20:59:46.121Z,17.53
2022-10-06T21:02:13.471Z,14.87
2022-10-06T21:04:43.580Z,30.13
2022-10-06T21:07:11.203Z,22.73
2022-10-06T21:09:38.159Z,23.47
2022-10-06T21:12:05.320Z,21.43
2022-10-06T21:14:34.113Z,15.77
2022-10-06T21:17:01.760Z,16.77
2022-10-06T21:19:30.028Z,20.00
2022-10-06T21:21:57.061Z,18.30
2022-10-06T21:24:24.213Z,22.33
2022-10-06T21:26:52.793Z,14.40
2022-10-06T21:29:20.640Z,14.23
2022-10-06T21:31:47.877Z,16.37
2022-10-06T21:34:15.380Z,16.90
2022-10-06T21:36:43.501Z,15.07
2022-10-06T21:39:11.911Z,17.87
2022-10-06T21:41:39.845Z,15.97
2022-10-06T21:44:09.649Z,16.40
2022-10-06T21:46:40.999Z,13.30
2022-10-06T21:49:13.762Z,20.07
2022-10-06T21:51:42.069Z,18.13
2022-10-06T21:54:12.413Z,14.53
2022-10-06T21:56:40.015Z,14.33
2022-10-06T21:59:07.425Z,15.53
2022-10-06T22:01:37.538Z,19.33
2022-10-06T22:04:05.653Z,19.57
2022-10-06T22:06:35.043Z,12.53
2022-10-06T22:09:03.936Z,13.70
2022-10-06T22:11:35.443Z,13.50
2022-10-06T22:14:05.075Z,22.43
2022-10-06T22:16:34.387Z,15.30
2022-10-06T22:19:03.261Z,19.20
2022-10-06T22:21:37.906Z,11.97
2022-10-06T22:24:08.108Z,17.00
2022-10-06T22:26:37.568Z,13.27
2022-10-06T22:29:10.227Z,12.53
2022-10-06T22:31:43.099Z,12.03
2022-10-06T22:34:12.868Z,12.17
2022-10-06T22:36:40.229Z,20.47
2022-10-06T22:39:07.398Z,18.63
2022-10-06T22:41:34.682Z,16.87
2022-10-06T22:44:01.970Z,20.27
2022-10-06T22:46:31.832Z,18.27
2022-10-06T22:48:59.030Z,16.97
2022-10-06T22:51:26.411Z,19.07
2022-10-06T22:53:58.830Z,18.93
2022-10-06T22:56:28.391Z,16.43
2022-10-06T22:58:59.629Z,15.73
2022-10-06T23:01:27.809Z,16.97
2022-10-06T23:03:55.722Z,10.93
2022-10-06T23:06:22.996Z,14.70
2022-10-06T23:08:50.014Z,13.93
2022-10-06T23:11:19.651Z,15.27
2022-10-06T23:13:48.459Z,17.47
2022-10-06T23:16:17.475Z,15.20
2022-10-06T23:18:45.474Z,15.77
2022-10-06T23:21:21.561Z,24.13
2022-10-06T23:23:51.042Z,17.33
2022-10-06T23:26:19.112Z,20.17
2022-10-06T23:28:50.567Z,22.30
2022-10-06T23:31:17.547Z,20.77
2022-10-06T23:33:44.640Z,26.70
2022-10-06T23:36:12.470Z,28.20
2022-10-06T23:38:39.851Z,17.53
2022-10-06T23:41:07.765Z,22.97
2022-10-06T23:43:35.170Z,25.83
2022-10-06T23:46:02.628Z,30.60
2022-10-06T23:48:30.041Z,29.93
2022-10-06T23:51:15.995Z,28.07
2022-10-06T23:53:43.208Z,32.20
2022-10-06T23:56:10.660Z,38.83
2022-10-06T23:58:37.600Z,30.43
